sensor_id;sensor_type;location;lat;lon;timestamp;P1;durP1;ratioP1;P2;durP2;ratioP2
76475;SDS011;65308;50.078;14.854;2023-10-09T00:01:40;6.55;;;3.22;;
76475;SDS011;65308;50.078;14.854;2023-10-09T00:04:09;6.82;;;3.45;;
76475;SDS011;65308;50.078;14.854;2023-10-09T00:06:36;7.07;;;3.15;;
76475;SDS011;65308;50.078;14.854;2023-10-09T00:09:03;5.47;;;3.33;;
76475;SDS011;65308;50.078;14.854;2023-10-09T00:11:55;7.20;;;3.55;;
76475;SDS011;65308;50.078;14.854;2023-10-09T00:14:23;6.80;;;3.30;;
76475;SDS011;65308;50.078;14.854;2023-10-09T00:16:52;5.68;;;3.47;;
76475;SDS011;65308;50.078;14.854;2023-10-09T00:19:30;8.00;;;3.00;;
76475;SDS011;65308;50.078;14.854;2023-10-09T00:24:31;5.63;;;3.00;;
76475;SDS011;65308;50.078;14.854;2023-10-09T00:26:58;5.65;;;3.28;;
76475;SDS011;65308;50.078;14.854;2023-10-09T00:29:36;6.80;;;3.13;;
76475;SDS011;65308;50.078;14.854;2023-10-09T00:32:11;7.50;;;2.90;;
76475;SDS011;65308;50.078;14.854;2023-10-09T00:34:47;6.03;;;2.70;;
76475;SDS011;65308;50.078;14.854;2023-10-09T00:37:16;5.25;;;3.10;;
76475;SDS011;65308;50.078;14.854;2023-10-09T00:39:48;6.55;;;3.08;;
76475;SDS011;65308;50.078;14.854;2023-10-09T00:42:21;6.05;;;3.15;;
76475;SDS011;65308;50.078;14.854;2023-10-09T00:44:52;6.15;;;2.75;;
76475;SDS011;65308;50.078;14.854;2023-10-09T00:47:21;6.03;;;2.70;;
76475;SDS011;65308;50.078;14.854;2023-10-09T00:49:52;4.88;;;2.67;;
76475;SDS011;65308;50.078;14.854;2023-10-09T00:52:26;5.43;;;3.28;;
76475;SDS011;65308;50.078;14.854;2023-10-09T00:54:57;6.75;;;2.88;;
76475;SDS011;65308;50.078;14.854;2023-10-09T00:57:29;7.75;;;3.35;;
76475;SDS011;65308;50.078;14.854;2023-10-09T01:00:01;7.72;;;2.90;;
76475;SDS011;65308;50.078;14.854;2023-10-09T01:02:37;7.10;;;3.20;;
76475;SDS011;65308;50.078;14.854;2023-10-09T01:05:08;6.72;;;3.30;;
76475;SDS011;65308;50.078;14.854;2023-10-09T01:07:48;5.53;;;3.25;;
76475;SDS011;65308;50.078;14.854;2023-10-09T01:10:23;4.70;;;2.80;;
76475;SDS011;65308;50.078;14.854;2023-10-09T01:12:51;9.57;;;3.75;;
76475;SDS011;65308;50.078;14.854;2023-10-09T01:15:20;7.05;;;3.40;;
76475;SDS011;65308;50.078;14.854;2023-10-09T01:18:03;6.28;;;3.47;;
76475;SDS011;65308;50.078;14.854;2023-10-09T01:20:33;6.00;;;3.00;;
76475;SDS011;65308;50.078;14.854;2023-10-09T01:23:09;5.88;;;2.97;;
76475;SDS011;65308;50.078;14.854;2023-10-09T01:25:37;6.03;;;3.30;;
76475;SDS011;65308;50.078;14.854;2023-10-09T01:28:09;7.50;;;3.40;;
76475;SDS011;65308;50.078;14.854;2023-10-09T01:30:41;6.00;;;3.50;;
76475;SDS011;65308;50.078;14.854;2023-10-09T01:33:09;4.97;;;3.15;;
76475;SDS011;65308;50.078;14.854;2023-10-09T01:35:47;6.45;;;3.60;;
76475;SDS011;65308;50.078;14.854;2023-10-09T01:38:18;6.80;;;3.65;;
76475;SDS011;65308;50.078;14.854;2023-10-09T01:40:55;8.00;;;3.83;;
76475;SDS011;65308;50.078;14.854;2023-10-09T01:43:30;9.05;;;3.80;;
76475;SDS011;65308;50.078;14.854;2023-10-09T01:45:59;5.70;;;3.33;;
76475;SDS011;65308;50.078;14.854;2023-10-09T01:48:29;6.40;;;3.40;;
76475;SDS011;65308;50.078;14.854;2023-10-09T01:50:58;6.03;;;3.58;;
76475;SDS011;65308;50.078;14.854;2023-10-09T01:53:26;5.80;;;3.30;;
76475;SDS011;65308;50.078;14.854;2023-10-09T01:55:55;5.32;;;3.30;;
76475;SDS011;65308;50.078;14.854;2023-10-09T01:58:24;6.35;;;3.28;;
76475;SDS011;65308;50.078;14.854;2023-10-09T02:00:52;5.72;;;2.85;;
76475;SDS011;65308;50.078;14.854;2023-10-09T02:03:21;5.45;;;3.35;;
76475;SDS011;65308;50.078;14.854;2023-10-09T02:05:50;5.50;;;3.03;;
76475;SDS011;65308;50.078;14.854;2023-10-09T02:08:18;6.57;;;3.55;;
76475;SDS011;65308;50.078;14.854;2023-10-09T02:10:48;5.88;;;3.38;;
76475;SDS011;65308;50.078;14.854;2023-10-09T02:13:15;5.63;;;3.30;;
76475;SDS011;65308;50.078;14.854;2023-10-09T02:15:43;5.53;;;3.22;;
76475;SDS011;65308;50.078;14.854;2023-10-09T02:18:24;6.28;;;3.70;;
76475;SDS011;65308;50.078;14.854;2023-10-09T02:21:05;5.35;;;3.13;;
76475;SDS011;65308;50.078;14.854;2023-10-09T02:23:38;7.00;;;3.33;;
76475;SDS011;65308;50.078;14.854;2023-10-09T02:26:07;5.45;;;3.45;;
76475;SDS011;65308;50.078;14.854;2023-10-09T02:28:35;5.50;;;3.00;;
76475;SDS011;65308;50.078;14.854;2023-10-09T02:31:09;5.40;;;3.03;;
76475;SDS011;65308;50.078;14.854;2023-10-09T02:33:36;5.80;;;2.90;;
76475;SDS011;65308;50.078;14.854;2023-10-09T02:36:04;5.88;;;3.50;;
76475;SDS011;65308;50.078;14.854;2023-10-09T02:38:31;6.10;;;3.35;;
76475;SDS011;65308;50.078;14.854;2023-10-09T02:41:02;4.97;;;2.90;;
76475;SDS011;65308;50.078;14.854;2023-10-09T02:43:49;7.00;;;3.08;;
76475;SDS011;65308;50.078;14.854;2023-10-09T02:46:18;4.95;;;2.92;;
76475;SDS011;65308;50.078;14.854;2023-10-09T02:48:45;5.63;;;3.45;;
76475;SDS011;65308;50.078;14.854;2023-10-09T02:51:16;5.28;;;2.97;;
76475;SDS011;65308;50.078;14.854;2023-10-09T02:53:58;6.50;;;3.38;;
76475;SDS011;65308;50.078;14.854;2023-10-09T02:56:32;6.15;;;3.30;;
76475;SDS011;65308;50.078;14.854;2023-10-09T02:59:04;6.22;;;3.40;;
76475;SDS011;65308;50.078;14.854;2023-10-09T03:01:32;5.50;;;3.30;;
76475;SDS011;65308;50.078;14.854;2023-10-09T03:04:02;6.57;;;3.42;;
76475;SDS011;65308;50.078;14.854;2023-10-09T03:06:31;6.03;;;3.58;;
76475;SDS011;65308;50.078;14.854;2023-10-09T03:09:01;6.07;;;3.05;;
76475;SDS011;65308;50.078;14.854;2023-10-09T03:11:41;5.07;;;3.17;;
76475;SDS011;65308;50.078;14.854;2023-10-09T03:14:10;5.97;;;3.28;;
76475;SDS011;65308;50.078;14.854;2023-10-09T03:16:37;5.88;;;3.08;;
76475;SDS011;65308;50.078;14.854;2023-10-09T03:19:04;7.22;;;3.85;;
76475;SDS011;65308;50.078;14.854;2023-10-09T03:21:30;6.75;;;3.40;;
76475;SDS011;65308;50.078;14.854;2023-10-09T03:23:57;6.40;;;3.40;;
76475;SDS011;65308;50.078;14.854;2023-10-09T03:26:25;7.35;;;3.10;;
76475;SDS011;65308;50.078;14.854;2023-10-09T03:28:52;5.32;;;2.95;;
76475;SDS011;65308;50.078;14.854;2023-10-09T03:31:20;6.05;;;3.35;;
76475;SDS011;65308;50.078;14.854;2023-10-09T03:33:47;5.63;;;2.83;;
76475;SDS011;65308;50.078;14.854;2023-10-09T03:36:14;5.20;;;3.25;;
76475;SDS011;65308;50.078;14.854;2023-10-09T03:38:42;5.57;;;2.88;;
76475;SDS011;65308;50.078;14.854;2023-10-09T03:41:09;6.25;;;3.10;;
76475;SDS011;65308;50.078;14.854;2023-10-09T03:43:38;5.93;;;3.15;;
76475;SDS011;65308;50.078;14.854;2023-10-09T03:46:07;5.80;;;3.20;;
76475;SDS011;65308;50.078;14.854;2023-10-09T03:48:46;5.43;;;3.03;;
76475;SDS011;65308;50.078;14.854;2023-10-09T03:51:13;6.38;;;3.10;;
76475;SDS011;65308;50.078;14.854;2023-10-09T03:53:46;8.43;;;3.65;;
76475;SDS011;65308;50.078;14.854;2023-10-09T03:56:13;8.38;;;3.95;;
76475;SDS011;65308;50.078;14.854;2023-10-09T03:58:42;7.85;;;3.63;;
76475;SDS011;65308;50.078;14.854;2023-10-09T04:01:10;6.63;;;3.88;;
76475;SDS011;65308;50.078;14.854;2023-10-09T04:03:42;9.43;;;3.83;;
76475;SDS011;65308;50.078;14.854;2023-10-09T04:06:11;6.25;;;3.80;;
76475;SDS011;65308;50.078;14.854;2023-10-09T04:08:38;6.22;;;3.28;;
76475;SDS011;65308;50.078;14.854;2023-10-09T04:11:12;6.13;;;3.85;;
76475;SDS011;65308;50.078;14.854;2023-10-09T04:13:42;7.03;;;3.72;;
76475;SDS011;65308;50.078;14.854;2023-10-09T04:16:11;5.55;;;2.97;;
76475;SDS011;65308;50.078;14.854;2023-10-09T04:18:59;5.93;;;3.60;;
76475;SDS011;65308;50.078;14.854;2023-10-09T04:21:32;7.18;;;3.25;;
76475;SDS011;65308;50.078;14.854;2023-10-09T04:24:01;6.47;;;3.35;;
76475;SDS011;65308;50.078;14.854;2023-10-09T04:26:48;9.60;;;3.67;;
76475;SDS011;65308;50.078;14.854;2023-10-09T04:29:21;5.85;;;3.58;;
76475;SDS011;65308;50.078;14.854;2023-10-09T04:32:03;5.03;;;3.13;;
76475;SDS011;65308;50.078;14.854;2023-10-09T04:34:32;6.43;;;3.45;;
76475;SDS011;65308;50.078;14.854;2023-10-09T04:37:02;6.80;;;3.50;;
76475;SDS011;65308;50.078;14.854;2023-10-09T04:40:00;6.60;;;3.70;;
76475;SDS011;65308;50.078;14.854;2023-10-09T04:42:36;6.70;;;3.25;;
76475;SDS011;65308;50.078;14.854;2023-10-09T04:45:03;5.85;;;3.78;;
76475;SDS011;65308;50.078;14.854;2023-10-09T04:48:07;6.47;;;3.55;;
76475;SDS011;65308;50.078;14.854;2023-10-09T04:50:33;7.25;;;3.90;;
76475;SDS011;65308;50.078;14.854;2023-10-09T04:53:13;6.43;;;3.22;;
76475;SDS011;65308;50.078;14.854;2023-10-09T04:55:48;7.70;;;3.78;;
76475;SDS011;65308;50.078;14.854;2023-10-09T04:58:22;8.43;;;3.50;;
76475;SDS011;65308;50.078;14.854;2023-10-09T05:00:52;5.82;;;3.00;;
76475;SDS011;65308;50.078;14.854;2023-10-09T05:03:40;6.50;;;3.30;;
76475;SDS011;65308;50.078;14.854;2023-10-09T05:06:10;7.10;;;3.90;;
76475;SDS011;65308;50.078;14.854;2023-10-09T05:09:09;8.07;;;3.35;;
76475;SDS011;65308;50.078;14.854;2023-10-09T05:11:40;5.40;;;3.38;;
76475;SDS011;65308;50.078;14.854;2023-10-09T05:14:19;5.20;;;3.10;;
76475;SDS011;65308;50.078;14.854;2023-10-09T05:16:52;6.72;;;3.25;;
76475;SDS011;65308;50.078;14.854;2023-10-09T05:19:26;6.13;;;3.20;;
76475;SDS011;65308;50.078;14.854;2023-10-09T05:21:55;7.70;;;3.35;;
76475;SDS011;65308;50.078;14.854;2023-10-09T05:24:24;5.18;;;3.10;;
76475;SDS011;65308;50.078;14.854;2023-10-09T05:26:53;5.80;;;3.40;;
76475;SDS011;65308;50.078;14.854;2023-10-09T05:29:37;6.15;;;3.20;;
76475;SDS011;65308;50.078;14.854;2023-10-09T05:32:13;7.28;;;3.65;;
76475;SDS011;65308;50.078;14.854;2023-10-09T05:37:33;6.68;;;3.40;;
76475;SDS011;65308;50.078;14.854;2023-10-09T05:40:09;5.93;;;3.60;;
76475;SDS011;65308;50.078;14.854;2023-10-09T05:42:48;6.32;;;3.25;;
76475;SDS011;65308;50.078;14.854;2023-10-09T05:45:25;7.00;;;3.55;;
76475;SDS011;65308;50.078;14.854;2023-10-09T05:48:24;7.28;;;4.00;;
76475;SDS011;65308;50.078;14.854;2023-10-09T05:51:27;8.95;;;4.28;;
76475;SDS011;65308;50.078;14.854;2023-10-09T05:54:09;6.30;;;3.85;;
76475;SDS011;65308;50.078;14.854;2023-10-09T05:57:08;9.02;;;4.18;;
76475;SDS011;65308;50.078;14.854;2023-10-09T05:59:52;7.97;;;4.60;;
76475;SDS011;65308;50.078;14.854;2023-10-09T06:02:51;7.00;;;4.30;;
76475;SDS011;65308;50.078;14.854;2023-10-09T06:05:35;8.10;;;4.07;;
76475;SDS011;65308;50.078;14.854;2023-10-09T06:08:17;7.20;;;4.05;;
76475;SDS011;65308;50.078;14.854;2023-10-09T06:10:50;8.75;;;3.88;;
76475;SDS011;65308;50.078;14.854;2023-10-09T06:13:30;8.20;;;3.90;;
76475;SDS011;65308;50.078;14.854;2023-10-09T06:16:06;8.98;;;4.03;;
76475;SDS011;65308;50.078;14.854;2023-10-09T06:18:45;8.10;;;3.92;;
76475;SDS011;65308;50.078;14.854;2023-10-09T06:21:33;9.10;;;4.70;;
76475;SDS011;65308;50.078;14.854;2023-10-09T06:24:07;9.40;;;4.70;;
76475;SDS011;65308;50.078;14.854;2023-10-09T06:26:44;7.25;;;4.13;;
76475;SDS011;65308;50.078;14.854;2023-10-09T06:29:29;6.72;;;4.40;;
76475;SDS011;65308;50.078;14.854;2023-10-09T06:32:02;7.53;;;4.35;;
76475;SDS011;65308;50.078;14.854;2023-10-09T06:37:17;7.05;;;3.72;;
76475;SDS011;65308;50.078;14.854;2023-10-09T06:40:01;7.70;;;4.07;;
76475;SDS011;65308;50.078;14.854;2023-10-09T06:43:08;12.50;;;6.15;;
76475;SDS011;65308;50.078;14.854;2023-10-09T06:48:11;6.78;;;3.70;;
76475;SDS011;65308;50.078;14.854;2023-10-09T06:50:56;17.88;;;8.77;;
76475;SDS011;65308;50.078;14.854;2023-10-09T06:53:29;16.45;;;7.40;;
76475;SDS011;65308;50.078;14.854;2023-10-09T06:56:12;12.48;;;6.47;;
76475;SDS011;65308;50.078;14.854;2023-10-09T06:58:48;9.18;;;4.63;;
76475;SDS011;65308;50.078;14.854;2023-10-09T07:01:14;7.82;;;3.90;;
76475;SDS011;65308;50.078;14.854;2023-10-09T07:03:54;7.70;;;3.83;;
76475;SDS011;65308;50.078;14.854;2023-10-09T07:06:25;7.07;;;4.10;;
76475;SDS011;65308;50.078;14.854;2023-10-09T07:09:14;7.18;;;4.10;;
76475;SDS011;65308;50.078;14.854;2023-10-09T07:11:45;6.68;;;3.70;;
76475;SDS011;65308;50.078;14.854;2023-10-09T07:14:29;7.40;;;3.65;;
76475;SDS011;65308;50.078;14.854;2023-10-09T07:17:26;9.48;;;4.18;;
76475;SDS011;65308;50.078;14.854;2023-10-09T07:20:08;7.97;;;4.05;;
76475;SDS011;65308;50.078;14.854;2023-10-09T07:22:38;7.90;;;4.00;;
76475;SDS011;65308;50.078;14.854;2023-10-09T07:25:20;8.52;;;3.80;;
76475;SDS011;65308;50.078;14.854;2023-10-09T07:28:07;7.07;;;3.47;;
76475;SDS011;65308;50.078;14.854;2023-10-09T07:30:54;7.20;;;4.13;;
76475;SDS011;65308;50.078;14.854;2023-10-09T07:33:24;7.25;;;4.70;;
76475;SDS011;65308;50.078;14.854;2023-10-09T07:36:16;8.13;;;4.20;;
76475;SDS011;65308;50.078;14.854;2023-10-09T07:38:55;7.07;;;3.95;;
76475;SDS011;65308;50.078;14.854;2023-10-09T07:41:29;8.77;;;3.78;;
76475;SDS011;65308;50.078;14.854;2023-10-09T07:44:06;7.93;;;3.92;;
76475;SDS011;65308;50.078;14.854;2023-10-09T07:47:00;6.32;;;3.55;;
76475;SDS011;65308;50.078;14.854;2023-10-09T07:49:54;9.15;;;4.82;;
76475;SDS011;65308;50.078;14.854;2023-10-09T07:52:24;8.00;;;4.57;;
76475;SDS011;65308;50.078;14.854;2023-10-09T07:54:53;8.23;;;4.50;;
76475;SDS011;65308;50.078;14.854;2023-10-09T07:57:27;7.90;;;4.60;;
76475;SDS011;65308;50.078;14.854;2023-10-09T08:00:06;9.55;;;4.05;;
76475;SDS011;65308;50.078;14.854;2023-10-09T08:02:53;7.05;;;4.22;;
76475;SDS011;65308;50.078;14.854;2023-10-09T08:05:25;8.15;;;3.97;;
76475;SDS011;65308;50.078;14.854;2023-10-09T08:07:58;8.10;;;3.72;;
76475;SDS011;65308;50.078;14.854;2023-10-09T08:10:44;6.68;;;3.78;;
76475;SDS011;65308;50.078;14.854;2023-10-09T08:13:24;8.10;;;3.95;;
76475;SDS011;65308;50.078;14.854;2023-10-09T08:16:10;8.10;;;4.15;;
76475;SDS011;65308;50.078;14.854;2023-10-09T08:18:45;5.90;;;3.70;;
76475;SDS011;65308;50.078;14.854;2023-10-09T08:21:15;7.88;;;4.10;;
76475;SDS011;65308;50.078;14.854;2023-10-09T08:24:06;6.60;;;3.90;;
76475;SDS011;65308;50.078;14.854;2023-10-09T08:26:53;7.63;;;4.10;;
76475;SDS011;65308;50.078;14.854;2023-10-09T08:29:40;7.75;;;4.22;;
76475;SDS011;65308;50.078;14.854;2023-10-09T08:32:13;8.90;;;4.65;;
76475;SDS011;65308;50.078;14.854;2023-10-09T08:35:04;7.50;;;4.28;;
76475;SDS011;65308;50.078;14.854;2023-10-09T08:37:44;8.48;;;4.00;;
76475;SDS011;65308;50.078;14.854;2023-10-09T08:40:13;8.63;;;4.55;;
76475;SDS011;65308;50.078;14.854;2023-10-09T08:42:43;10.10;;;5.03;;
76475;SDS011;65308;50.078;14.854;2023-10-09T08:45:15;10.57;;;5.00;;
76475;SDS011;65308;50.078;14.854;2023-10-09T08:47:52;8.73;;;4.85;;
76475;SDS011;65308;50.078;14.854;2023-10-09T08:50:21;10.05;;;4.47;;
76475;SDS011;65308;50.078;14.854;2023-10-09T08:52:48;7.68;;;4.05;;
76475;SDS011;65308;50.078;14.854;2023-10-09T08:55:16;7.47;;;3.85;;
76475;SDS011;65308;50.078;14.854;2023-10-09T08:57:44;6.68;;;3.47;;
76475;SDS011;65308;50.078;14.854;2023-10-09T09:00:16;7.05;;;4.00;;
76475;SDS011;65308;50.078;14.854;2023-10-09T09:02:46;7.00;;;4.22;;
76475;SDS011;65308;50.078;14.854;2023-10-09T09:05:19;7.55;;;3.97;;
76475;SDS011;65308;50.078;14.854;2023-10-09T09:07:46;7.78;;;4.20;;
76475;SDS011;65308;50.078;14.854;2023-10-09T09:10:14;8.95;;;4.68;;
76475;SDS011;65308;50.078;14.854;2023-10-09T09:12:46;7.72;;;4.20;;
76475;SDS011;65308;50.078;14.854;2023-10-09T09:15:18;6.55;;;3.92;;
76475;SDS011;65308;50.078;14.854;2023-10-09T09:17:47;6.75;;;3.83;;
76475;SDS011;65308;50.078;14.854;2023-10-09T09:20:23;7.25;;;4.40;;
76475;SDS011;65308;50.078;14.854;2023-10-09T09:22:59;7.30;;;4.50;;
76475;SDS011;65308;50.078;14.854;2023-10-09T09:25:39;9.02;;;4.82;;
76475;SDS011;65308;50.078;14.854;2023-10-09T09:28:10;7.63;;;4.55;;
76475;SDS011;65308;50.078;14.854;2023-10-09T09:30:40;8.98;;;4.53;;
76475;SDS011;65308;50.078;14.854;2023-10-09T09:33:19;8.40;;;4.45;;
76475;SDS011;65308;50.078;14.854;2023-10-09T09:35:59;7.78;;;4.53;;
76475;SDS011;65308;50.078;14.854;2023-10-09T09:38:30;9.93;;;4.70;;
76475;SDS011;65308;50.078;14.854;2023-10-09T09:41:07;8.05;;;4.75;;
76475;SDS011;65308;50.078;14.854;2023-10-09T09:43:36;9.70;;;5.10;;
76475;SDS011;65308;50.078;14.854;2023-10-09T09:46:06;10.32;;;5.40;;
76475;SDS011;65308;50.078;14.854;2023-10-09T09:48:35;11.73;;;5.70;;
76475;SDS011;65308;50.078;14.854;2023-10-09T09:51:06;8.57;;;4.35;;
76475;SDS011;65308;50.078;14.854;2023-10-09T09:53:33;8.68;;;4.47;;
76475;SDS011;65308;50.078;14.854;2023-10-09T09:56:01;8.98;;;4.90;;
76475;SDS011;65308;50.078;14.854;2023-10-09T09:58:31;7.30;;;4.85;;
76475;SDS011;65308;50.078;14.854;2023-10-09T10:01:07;10.35;;;5.22;;
76475;SDS011;65308;50.078;14.854;2023-10-09T10:03:42;9.50;;;5.07;;
76475;SDS011;65308;50.078;14.854;2023-10-09T10:06:13;10.38;;;5.10;;
76475;SDS011;65308;50.078;14.854;2023-10-09T10:08:44;8.25;;;4.90;;
76475;SDS011;65308;50.078;14.854;2023-10-09T10:14:10;9.88;;;4.88;;
76475;SDS011;65308;50.078;14.854;2023-10-09T10:17:02;9.48;;;5.05;;
76475;SDS011;65308;50.078;14.854;2023-10-09T10:20:00;10.55;;;5.57;;
76475;SDS011;65308;50.078;14.854;2023-10-09T10:22:52;9.65;;;5.18;;
76475;SDS011;65308;50.078;14.854;2023-10-09T10:25:50;10.32;;;5.55;;
76475;SDS011;65308;50.078;14.854;2023-10-09T10:28:25;10.68;;;5.15;;
76475;SDS011;65308;50.078;14.854;2023-10-09T10:31:03;8.60;;;5.38;;
76475;SDS011;65308;50.078;14.854;2023-10-09T10:36:36;7.32;;;5.00;;
76475;SDS011;65308;50.078;14.854;2023-10-09T10:39:08;7.97;;;4.95;;
76475;SDS011;65308;50.078;14.854;2023-10-09T10:41:36;10.63;;;5.90;;
76475;SDS011;65308;50.078;14.854;2023-10-09T10:47:12;8.95;;;4.97;;
76475;SDS011;65308;50.078;14.854;2023-10-09T10:49:50;11.95;;;5.10;;
76475;SDS011;65308;50.078;14.854;2023-10-09T10:52:20;10.10;;;5.75;;
76475;SDS011;65308;50.078;14.854;2023-10-09T10:54:47;9.23;;;5.43;;
76475;SDS011;65308;50.078;14.854;2023-10-09T10:57:34;10.35;;;5.65;;
76475;SDS011;65308;50.078;14.854;2023-10-09T11:00:18;8.43;;;4.88;;
76475;SDS011;65308;50.078;14.854;2023-10-09T11:03:06;12.27;;;5.65;;
76475;SDS011;65308;50.078;14.854;2023-10-09T11:05:42;10.07;;;5.18;;
76475;SDS011;65308;50.078;14.854;2023-10-09T11:08:15;9.23;;;5.97;;
76475;SDS011;65308;50.078;14.854;2023-10-09T11:10:47;8.95;;;5.68;;
76475;SDS011;65308;50.078;14.854;2023-10-09T11:13:22;9.18;;;5.53;;
76475;SDS011;65308;50.078;14.854;2023-10-09T11:16:00;9.52;;;5.55;;
76475;SDS011;65308;50.078;14.854;2023-10-09T11:18:55;10.02;;;4.88;;
76475;SDS011;65308;50.078;14.854;2023-10-09T11:21:29;9.93;;;5.65;;
76475;SDS011;65308;50.078;14.854;2023-10-09T11:24:06;8.88;;;5.03;;
76475;SDS011;65308;50.078;14.854;2023-10-09T11:26:53;12.10;;;5.32;;
76475;SDS011;65308;50.078;14.854;2023-10-09T11:32:00;7.93;;;4.68;;
76475;SDS011;65308;50.078;14.854;2023-10-09T11:34:31;9.55;;;5.50;;
76475;SDS011;65308;50.078;14.854;2023-10-09T11:37:00;8.73;;;4.82;;
76475;SDS011;65308;50.078;14.854;2023-10-09T11:39:28;13.05;;;5.72;;
76475;SDS011;65308;50.078;14.854;2023-10-09T11:42:05;8.93;;;4.90;;
76475;SDS011;65308;50.078;14.854;2023-10-09T11:44:38;9.75;;;5.40;;
76475;SDS011;65308;50.078;14.854;2023-10-09T11:47:06;12.55;;;5.85;;
76475;SDS011;65308;50.078;14.854;2023-10-09T11:49:59;9.25;;;5.43;;
76475;SDS011;65308;50.078;14.854;2023-10-09T11:55:33;8.85;;;5.05;;
76475;SDS011;65308;50.078;14.854;2023-10-09T11:58:00;9.32;;;5.95;;
76475;SDS011;65308;50.078;14.854;2023-10-09T12:00:27;12.68;;;5.13;;
76475;SDS011;65308;50.078;14.854;2023-10-09T12:02:54;8.65;;;5.00;;
76475;SDS011;65308;50.078;14.854;2023-10-09T12:05:31;10.88;;;5.57;;
76475;SDS011;65308;50.078;14.854;2023-10-09T12:07:58;8.93;;;4.75;;
76475;SDS011;65308;50.078;14.854;2023-10-09T12:10:26;8.15;;;4.50;;
76475;SDS011;65308;50.078;14.854;2023-10-09T12:12:55;9.40;;;4.90;;
76475;SDS011;65308;50.078;14.854;2023-10-09T12:15:23;8.73;;;4.65;;
76475;SDS011;65308;50.078;14.854;2023-10-09T12:17:49;9.90;;;5.07;;
76475;SDS011;65308;50.078;14.854;2023-10-09T12:20:18;9.10;;;4.55;;
76475;SDS011;65308;50.078;14.854;2023-10-09T12:22:58;9.23;;;4.32;;
76475;SDS011;65308;50.078;14.854;2023-10-09T12:25:25;8.65;;;4.85;;
76475;SDS011;65308;50.078;14.854;2023-10-09T12:27:56;9.60;;;4.68;;
76475;SDS011;65308;50.078;14.854;2023-10-09T12:30:23;7.75;;;4.90;;
76475;SDS011;65308;50.078;14.854;2023-10-09T12:32:53;7.15;;;4.45;;
76475;SDS011;65308;50.078;14.854;2023-10-09T12:35:20;9.63;;;4.97;;
76475;SDS011;65308;50.078;14.854;2023-10-09T12:37:49;7.47;;;4.38;;
76475;SDS011;65308;50.078;14.854;2023-10-09T12:40:18;8.70;;;4.70;;
76475;SDS011;65308;50.078;14.854;2023-10-09T12:42:49;9.85;;;4.63;;
76475;SDS011;65308;50.078;14.854;2023-10-09T12:45:17;8.57;;;4.95;;
76475;SDS011;65308;50.078;14.854;2023-10-09T12:47:51;9.30;;;4.72;;
76475;SDS011;65308;50.078;14.854;2023-10-09T12:50:18;11.43;;;5.40;;
76475;SDS011;65308;50.078;14.854;2023-10-09T12:52:53;8.50;;;5.32;;
76475;SDS011;65308;50.078;14.854;2023-10-09T12:55:22;9.77;;;4.75;;
76475;SDS011;65308;50.078;14.854;2023-10-09T12:57:57;9.35;;;5.93;;
76475;SDS011;65308;50.078;14.854;2023-10-09T13:00:29;9.90;;;4.88;;
76475;SDS011;65308;50.078;14.854;2023-10-09T13:02:57;10.93;;;5.50;;
76475;SDS011;65308;50.078;14.854;2023-10-09T13:05:26;9.15;;;4.88;;
76475;SDS011;65308;50.078;14.854;2023-10-09T13:07:53;10.98;;;5.15;;
76475;SDS011;65308;50.078;14.854;2023-10-09T13:10:22;9.05;;;4.93;;
76475;SDS011;65308;50.078;14.854;2023-10-09T13:12:50;8.70;;;4.50;;
76475;SDS011;65308;50.078;14.854;2023-10-09T13:15:20;8.27;;;4.70;;
76475;SDS011;65308;50.078;14.854;2023-10-09T13:17:47;9.98;;;4.75;;
76475;SDS011;65308;50.078;14.854;2023-10-09T13:20:16;10.55;;;4.88;;
76475;SDS011;65308;50.078;14.854;2023-10-09T13:22:44;9.07;;;4.80;;
76475;SDS011;65308;50.078;14.854;2023-10-09T13:25:13;8.88;;;4.45;;
76475;SDS011;65308;50.078;14.854;2023-10-09T13:27:43;9.18;;;4.68;;
76475;SDS011;65308;50.078;14.854;2023-10-09T13:30:16;8.25;;;4.50;;
76475;SDS011;65308;50.078;14.854;2023-10-09T13:32:48;8.57;;;4.55;;
76475;SDS011;65308;50.078;14.854;2023-10-09T13:35:16;9.88;;;5.47;;
76475;SDS011;65308;50.078;14.854;2023-10-09T13:37:44;7.28;;;3.85;;
76475;SDS011;65308;50.078;14.854;2023-10-09T13:40:19;7.82;;;4.43;;
76475;SDS011;65308;50.078;14.854;2023-10-09T13:42:53;8.27;;;5.13;;
76475;SDS011;65308;50.078;14.854;2023-10-09T13:45:24;9.00;;;4.50;;
76475;SDS011;65308;50.078;14.854;2023-10-09T13:47:53;8.38;;;4.32;;
76475;SDS011;65308;50.078;14.854;2023-10-09T13:50:23;7.85;;;4.28;;
76475;SDS011;65308;50.078;14.854;2023-10-09T13:52:54;8.07;;;4.40;;
76475;SDS011;65308;50.078;14.854;2023-10-09T13:57:48;9.18;;;4.38;;
76475;SDS011;65308;50.078;14.854;2023-10-09T14:00:16;8.82;;;4.45;;
76475;SDS011;65308;50.078;14.854;2023-10-09T14:02:57;8.93;;;4.22;;
76475;SDS011;65308;50.078;14.854;2023-10-09T14:05:26;9.88;;;4.30;;
76475;SDS011;65308;50.078;14.854;2023-10-09T14:07:54;11.15;;;5.50;;
76475;SDS011;65308;50.078;14.854;2023-10-09T14:10:25;9.07;;;4.70;;
76475;SDS011;65308;50.078;14.854;2023-10-09T14:12:55;11.93;;;5.57;;
76475;SDS011;65308;50.078;14.854;2023-10-09T14:15:23;8.10;;;4.72;;
76475;SDS011;65308;50.078;14.854;2023-10-09T14:17:50;8.45;;;5.22;;
76475;SDS011;65308;50.078;14.854;2023-10-09T14:20:21;13.30;;;5.97;;
76475;SDS011;65308;50.078;14.854;2023-10-09T14:22:56;9.90;;;5.97;;
76475;SDS011;65308;50.078;14.854;2023-10-09T14:25:31;8.20;;;5.18;;
76475;SDS011;65308;50.078;14.854;2023-10-09T14:27:58;7.65;;;4.00;;
76475;SDS011;65308;50.078;14.854;2023-10-09T14:30:26;8.63;;;4.80;;
76475;SDS011;65308;50.078;14.854;2023-10-09T14:32:59;7.55;;;5.07;;
76475;SDS011;65308;50.078;14.854;2023-10-09T14:35:27;9.10;;;5.18;;
76475;SDS011;65308;50.078;14.854;2023-10-09T14:37:55;8.10;;;4.97;;
76475;SDS011;65308;50.078;14.854;2023-10-09T14:40:22;6.95;;;4.40;;
76475;SDS011;65308;50.078;14.854;2023-10-09T14:42:55;8.98;;;5.13;;
76475;SDS011;65308;50.078;14.854;2023-10-09T14:45:23;9.18;;;5.05;;
76475;SDS011;65308;50.078;14.854;2023-10-09T14:47:52;9.75;;;5.20;;
76475;SDS011;65308;50.078;14.854;2023-10-09T14:50:20;7.82;;;4.70;;
76475;SDS011;65308;50.078;14.854;2023-10-09T14:52:48;9.55;;;5.82;;
76475;SDS011;65308;50.078;14.854;2023-10-09T14:55:15;9.95;;;6.07;;
76475;SDS011;65308;50.078;14.854;2023-10-09T14:57:46;10.50;;;4.75;;
76475;SDS011;65308;50.078;14.854;2023-10-09T15:00:15;8.38;;;5.00;;
76475;SDS011;65308;50.078;14.854;2023-10-09T15:02:48;8.48;;;4.60;;
76475;SDS011;65308;50.078;14.854;2023-10-09T15:05:17;9.55;;;4.80;;
76475;SDS011;65308;50.078;14.854;2023-10-09T15:07:44;9.45;;;5.47;;
76475;SDS011;65308;50.078;14.854;2023-10-09T15:10:10;10.25;;;4.88;;
76475;SDS011;65308;50.078;14.854;2023-10-09T15:12:40;9.75;;;5.68;;
76475;SDS011;65308;50.078;14.854;2023-10-09T15:17:38;9.60;;;4.80;;
76475;SDS011;65308;50.078;14.854;2023-10-09T15:20:10;8.43;;;4.75;;
76475;SDS011;65308;50.078;14.854;2023-10-09T15:22:41;8.90;;;5.22;;
76475;SDS011;65308;50.078;14.854;2023-10-09T15:25:08;8.73;;;4.65;;
76475;SDS011;65308;50.078;14.854;2023-10-09T15:27:39;8.88;;;5.50;;
76475;SDS011;65308;50.078;14.854;2023-10-09T15:30:06;9.50;;;6.00;;
76475;SDS011;65308;50.078;14.854;2023-10-09T15:32:38;8.57;;;5.22;;
76475;SDS011;65308;50.078;14.854;2023-10-09T15:35:06;8.75;;;5.30;;
76475;SDS011;65308;50.078;14.854;2023-10-09T15:37:37;8.77;;;5.50;;
76475;SDS011;65308;50.078;14.854;2023-10-09T15:40:08;9.13;;;5.40;;
76475;SDS011;65308;50.078;14.854;2023-10-09T15:42:42;10.80;;;5.30;;